Feieskjaer — LM9293 — position and weather

sailwx.info

Track history (hours):
 
Tides and Currents Weather Stations Pressure Air Temp Water Temp Dewpoint Dewpoint Depression Visibility Wind Speed Wind Dir Waves Ship Positions

Feieskjaer

Last reported at 2017-Nov-12 11:26 UTC. Time now 2017-Nov-20 04:13 UTC.
Position N 69°58' E 029°41'.

Length 8 m.

Type: Fishing. MMSI: 257460120.

Date/timePositionNaut miles runAvg speedWind from/ knotsBaromVisibWave heightAir tempDewpointWater temp
2017-Nov-12 11:26N 69°58' E 029°41'3 5.9
2017-Nov-12 10:59N 69°55' E 029°44'1 2.1
2017-Nov-12 10:28N 69°54' E 029°45'0 0.2
2017-Nov-12 09:59N 69°54' E 029°45'0 0.4
2017-Nov-12 09:30N 69°54' E 029°46'0 0.2
2017-Nov-12 09:00N 69°54' E 029°46'1 1.2
2017-Nov-12 08:28N 69°55' E 029°45'4 3.3
2017-Nov-12 07:23N 69°58' E 029°40'  
2017-Nov-05 10:55N 69°58' E 029°39'2 5.8
2017-Nov-05 10:30N 69°56' E 029°43'2 4.2
2017-Nov-05 10:00N 69°54' E 029°45'0 0.4
2017-Nov-05 09:31N 69°54' E 029°46'0 0.3
2017-Nov-05 09:00N 69°54' E 029°45'0 0.6
2017-Nov-05 08:29N 69°55' E 029°45'0 0.9
2017-Nov-05 07:59N 69°54' E 029°46'3 2.7
2017-Nov-05 06:50N 69°57' E 029°41'  
Track history (hours):
 
Tides and Currents Weather Stations Pressure Air Temp Water Temp Dewpoint Dewpoint Depression Visibility Wind Speed Wind Dir Waves Ship Positions

Feieskjaer

Last reported at 2017-Nov-12 11:26 UTC. Time now 2017-Nov-20 04:13 UTC.
Position N 69°58' E 029°41'.

Length 8 m.

Type: Fishing. MMSI: 257460120.

Date/timePositionNaut miles runAvg speedWind from/ knotsBaromVisibWave heightAir tempDewpointWater temp
2017-Nov-12 11:26N 69°58' E 029°41'3 5.9
2017-Nov-12 10:59N 69°55' E 029°44'1 2.1
2017-Nov-12 10:28N 69°54' E 029°45'0 0.2
2017-Nov-12 09:59N 69°54' E 029°45'0 0.4
2017-Nov-12 09:30N 69°54' E 029°46'0 0.2
2017-Nov-12 09:00N 69°54' E 029°46'1 1.2
2017-Nov-12 08:28N 69°55' E 029°45'4 3.3
2017-Nov-12 07:23N 69°58' E 029°40'  
2017-Nov-05 10:55N 69°58' E 029°39'2 5.8
2017-Nov-05 10:30N 69°56' E 029°43'2 4.2
2017-Nov-05 10:00N 69°54' E 029°45'0 0.4
2017-Nov-05 09:31N 69°54' E 029°46'0 0.3
2017-Nov-05 09:00N 69°54' E 029°45'0 0.6
2017-Nov-05 08:29N 69°55' E 029°45'0 0.9
2017-Nov-05 07:59N 69°54' E 029°46'3 2.7
2017-Nov-05 06:50N 69°57' E 029°41'  

Dump ship's entire track history